createdAt,value
2018-08-06T00:00:33.800Z,70.60
2018-08-06T00:03:03.813Z,70.40
2018-08-06T00:05:33.618Z,70.70
2018-08-06T00:08:03.247Z,70.60
2018-08-06T00:10:33.128Z,70.60
2018-08-06T00:13:02.860Z,70.20
2018-08-06T00:15:32.740Z,70.70
2018-08-06T00:18:02.402Z,70.10
2018-08-06T00:20:32.129Z,69.20
2018-08-06T00:23:02.035Z,68.60
2018-08-06T00:25:31.890Z,68.40
2018-08-06T00:28:01.773Z,68.30
2018-08-06T00:30:31.547Z,67.20
2018-08-06T00:33:08.783Z,67.50
2018-08-06T00:35:41.304Z,68.20
2018-08-06T00:38:17.589Z,67.20
2018-08-06T00:40:51.542Z,66.70
2018-08-06T00:43:21.199Z,65.50
2018-08-06T00:45:50.868Z,65.60
2018-08-06T00:50:49.719Z,65.30
2018-08-06T00:53:19.404Z,65.20
2018-08-06T00:55:49.236Z,65.30
2018-08-06T00:58:18.963Z,65.30
2018-08-06T01:00:48.833Z,64.70
2018-08-06T01:03:18.586Z,65.10
2018-08-06T01:05:48.509Z,65.70
2018-08-06T01:08:18.418Z,65.20
2018-08-06T01:10:48.316Z,64.70
2018-08-06T01:13:18.143Z,65.20
2018-08-06T01:15:48.062Z,65.20
2018-08-06T01:18:17.844Z,64.10
2018-08-06T01:20:47.627Z,64.40
2018-08-06T01:23:17.357Z,65.00
2018-08-06T01:25:47.167Z,63.70
2018-08-06T01:28:16.944Z,64.30
2018-08-06T01:30:46.816Z,63.90
2018-08-06T01:33:16.515Z,64.30
2018-08-06T01:35:46.395Z,63.60
2018-08-06T01:38:16.122Z,63.90
2018-08-06T01:40:45.919Z,64.60
2018-08-06T01:43:15.692Z,64.70
2018-08-06T01:45:45.658Z,64.90
2018-08-06T01:48:15.300Z,65.00
2018-08-06T01:50:45.272Z,66.00
2018-08-06T01:53:14.932Z,65.20
2018-08-06T01:55:44.623Z,66.20
2018-08-06T01:58:14.296Z,65.50
2018-08-06T02:00:43.968Z,65.50
2018-08-06T02:03:13.765Z,65.80
2018-08-06T02:05:43.688Z,65.90
2018-08-06T02:08:13.539Z,65.10
2018-08-06T02:10:43.333Z,66.00
2018-08-06T02:13:13.268Z,65.60
2018-08-06T02:15:43.062Z,66.50
2018-08-06T02:18:13.000Z,65.80
2018-08-06T02:23:11.863Z,66.10
2018-08-06T02:25:41.824Z,66.10
2018-08-06T02:28:11.494Z,65.70
2018-08-06T02:30:41.304Z,64.90
2018-08-06T02:33:11.204Z,66.70
2018-08-06T02:35:41.177Z,65.30
2018-08-06T02:38:10.934Z,65.80
2018-08-06T02:40:40.908Z,64.70
2018-08-06T02:43:10.768Z,66.00
2018-08-06T02:45:40.631Z,65.50
2018-08-06T02:48:10.497Z,65.50
2018-08-06T02:50:40.465Z,67.00
2018-08-06T02:53:10.308Z,66.30
2018-08-06T02:55:39.980Z,65.90
2018-08-06T02:58:09.731Z,67.20
2018-08-06T03:00:39.458Z,66.70
2018-08-06T03:03:09.208Z,66.70
2018-08-06T03:05:38.874Z,66.70
2018-08-06T03:08:08.736Z,67.40
2018-08-06T03:10:38.487Z,67.30
2018-08-06T03:13:08.358Z,67.70
2018-08-06T03:15:38.111Z,67.20
2018-08-06T03:18:07.931Z,68.00
2018-08-06T03:20:37.736Z,68.20
2018-08-06T03:23:07.632Z,68.40
2018-08-06T03:25:37.376Z,68.10
2018-08-06T03:28:07.391Z,67.60
2018-08-06T03:30:37.220Z,67.50
2018-08-06T03:33:07.164Z,68.30
2018-08-06T03:38:06.036Z,67.40
2018-08-06T03:40:35.867Z,67.60
2018-08-06T03:43:05.761Z,68.70
2018-08-06T03:45:35.552Z,68.00
2018-08-06T03:48:05.569Z,67.30
2018-08-06T03:50:35.672Z,67.70
2018-08-06T03:53:05.664Z,67.10
2018-08-06T03:55:35.934Z,66.90
2018-08-06T03:58:06.110Z,67.20
2018-08-06T04:03:05.174Z,67.70
2018-08-06T04:05:35.030Z,68.30
2018-08-06T04:08:04.826Z,67.10
2018-08-06T04:10:35.028Z,67.70
2018-08-06T04:13:05.148Z,67.20
2018-08-06T04:15:35.125Z,67.60
2018-08-06T04:18:05.016Z,67.90
2018-08-06T04:20:34.709Z,68.20
2018-08-06T04:23:04.537Z,67.80
2018-08-06T04:25:34.206Z,67.50
2018-08-06T04:28:04.182Z,67.50
2018-08-06T04:30:34.014Z,67.90
2018-08-06T04:33:04.019Z,67.80
2018-08-06T04:35:33.744Z,67.40
2018-08-06T04:38:03.612Z,67.20
2018-08-06T04:40:33.457Z,67.50
2018-08-06T04:43:03.243Z,67.40
2018-08-06T04:45:33.105Z,67.30
2018-08-06T04:48:02.907Z,68.10
2018-08-06T04:50:32.828Z,67.70
2018-08-06T04:53:02.698Z,67.80
2018-08-06T04:58:01.569Z,67.50
2018-08-06T05:00:31.348Z,67.50
2018-08-06T05:03:02.021Z,67.10
2018-08-06T05:05:31.812Z,67.80
2018-08-06T05:08:01.593Z,67.70
2018-08-06T05:10:31.382Z,67.60
2018-08-06T05:13:01.233Z,66.50
2018-08-06T05:15:31.099Z,67.10
2018-08-06T05:18:00.964Z,67.80
2018-08-06T05:20:30.664Z,67.60
2018-08-06T05:23:00.382Z,67.30
2018-08-06T05:25:30.175Z,67.70
2018-08-06T05:28:00.014Z,66.90
2018-08-06T05:30:29.757Z,66.70
2018-08-06T05:32:59.632Z,66.00
2018-08-06T05:35:29.328Z,66.50
2018-08-06T05:37:59.227Z,66.60
2018-08-06T05:40:28.949Z,65.80
2018-08-06T05:42:58.626Z,64.10
2018-08-06T05:45:28.385Z,65.00
2018-08-06T05:47:58.208Z,63.80
2018-08-06T05:50:28.005Z,66.70
2018-08-06T05:52:57.802Z,64.90
2018-08-06T05:55:27.428Z,65.80
2018-08-06T05:57:57.125Z,63.00
2018-08-06T06:00:26.736Z,63.60
2018-08-06T06:02:56.349Z,64.00
2018-08-06T06:05:25.939Z,62.40
2018-08-06T06:07:55.727Z,63.00
2018-08-06T06:10:25.489Z,62.00
2018-08-06T06:12:55.454Z,61.10
2018-08-06T06:15:25.308Z,60.60
2018-08-06T06:17:55.082Z,61.30
2018-08-06T06:20:24.941Z,60.30
2018-08-06T06:22:54.917Z,59.40
2018-08-06T06:25:24.677Z,59.70
2018-08-06T06:27:54.542Z,60.50
2018-08-06T06:30:24.403Z,61.60
2018-08-06T06:32:54.289Z,57.00
2018-08-06T06:35:24.130Z,60.50
2018-08-06T06:37:53.993Z,57.60
2018-08-06T06:40:23.766Z,60.00
2018-08-06T06:42:53.503Z,59.80
2018-08-06T06:45:23.276Z,57.80
2018-08-06T06:47:53.142Z,58.10
2018-08-06T06:52:52.185Z,56.90
2018-08-06T06:55:22.109Z,57.10
2018-08-06T06:57:51.808Z,56.90
2018-08-06T07:00:21.488Z,57.30
2018-08-06T07:02:51.219Z,57.80
2018-08-06T07:05:21.032Z,56.20
2018-08-06T07:07:50.956Z,55.00
2018-08-06T07:10:20.935Z,55.00
2018-08-06T07:12:50.755Z,53.20
2018-08-06T07:15:20.500Z,48.70
2018-08-06T07:17:50.232Z,45.30
2018-08-06T07:20:21.685Z,41.50
2018-08-06T07:22:51.587Z,39.10
2018-08-06T07:25:21.347Z,37.20
2018-08-06T07:27:51.113Z,35.90
2018-08-06T07:30:20.868Z,36.10
2018-08-06T07:32:50.748Z,35.00
2018-08-06T07:35:20.688Z,34.30
2018-08-06T07:37:50.450Z,34.80
2018-08-06T07:40:20.420Z,34.20
2018-08-06T07:42:50.187Z,33.40
2018-08-06T07:45:20.982Z,32.40
2018-08-06T07:47:51.316Z,32.10
2018-08-06T07:50:21.741Z,32.20
2018-08-06T07:52:51.379Z,30.40
2018-08-06T07:55:21.191Z,29.60
2018-08-06T07:57:51.074Z,29.20
2018-08-06T08:00:21.387Z,28.60
2018-08-06T08:02:51.233Z,28.00
2018-08-06T08:05:21.028Z,27.80
2018-08-06T08:07:50.929Z,27.70
2018-08-06T08:10:22.325Z,26.90
2018-08-06T08:12:52.082Z,26.80
2018-08-06T08:15:25.243Z,28.20
2018-08-06T08:17:55.820Z,27.10
2018-08-06T08:20:25.648Z,29.00
2018-08-06T08:22:55.376Z,29.30
2018-08-06T08:25:25.284Z,29.10
2018-08-06T08:27:55.138Z,30.20
2018-08-06T08:30:24.752Z,30.40
2018-08-06T08:32:54.424Z,29.60
2018-08-06T08:35:30.803Z,29.50
2018-08-06T08:38:00.806Z,29.70
2018-08-06T08:40:30.708Z,30.40
2018-08-06T08:43:00.409Z,30.00
2018-08-06T08:45:30.081Z,29.70
2018-08-06T08:47:59.808Z,28.30
2018-08-06T08:50:29.597Z,28.30
2018-08-06T08:52:59.255Z,27.20
2018-08-06T08:55:29.242Z,28.10
2018-08-06T08:57:59.002Z,28.30
2018-08-06T09:00:28.954Z,28.30
2018-08-06T09:02:58.723Z,28.10
2018-08-06T09:05:28.625Z,28.50
2018-08-06T09:07:58.451Z,27.90
2018-08-06T09:10:28.195Z,26.10
2018-08-06T09:12:57.939Z,27.10
2018-08-06T09:15:28.355Z,27.00
2018-08-06T09:17:57.988Z,26.90
2018-08-06T09:20:27.904Z,27.00
2018-08-06T09:22:57.757Z,26.50
2018-08-06T09:25:27.413Z,27.70
2018-08-06T09:27:57.091Z,28.30
2018-08-06T09:30:26.807Z,27.90
2018-08-06T09:32:57.492Z,27.80
2018-08-06T09:35:27.406Z,27.80
2018-08-06T09:37:57.284Z,26.40
2018-08-06T09:40:27.094Z,27.60
2018-08-06T09:42:56.944Z,27.90
2018-08-06T09:45:26.758Z,28.60
2018-08-06T09:47:56.729Z,28.70
2018-08-06T09:50:26.487Z,29.10
2018-08-06T09:52:56.603Z,29.60
2018-08-06T09:55:28.800Z,29.20
2018-08-06T09:57:58.670Z,28.90
2018-08-06T10:00:33.519Z,28.20
2018-08-06T10:03:03.682Z,29.20
2018-08-06T10:08:02.749Z,29.60
2018-08-06T10:10:32.680Z,30.20
2018-08-06T10:13:02.624Z,30.10
2018-08-06T10:15:32.484Z,29.30
2018-08-06T10:18:02.295Z,30.10
2018-08-06T10:20:32.014Z,30.00
2018-08-06T10:23:01.821Z,30.20
2018-08-06T10:25:31.686Z,31.30
2018-08-06T10:30:30.839Z,31.70
2018-08-06T10:33:00.654Z,32.50
2018-08-06T10:35:30.512Z,33.30
2018-08-06T10:38:00.380Z,31.70
2018-08-06T10:40:30.322Z,33.40
2018-08-06T10:43:00.009Z,35.40
2018-08-06T10:45:29.810Z,36.50
2018-08-06T10:47:59.585Z,36.80
2018-08-06T10:50:29.132Z,37.20
2018-08-06T10:52:58.903Z,39.00
2018-08-06T10:55:28.657Z,39.60
2018-08-06T10:57:58.267Z,39.80
2018-08-06T11:00:28.071Z,39.10
2018-08-06T11:02:57.815Z,40.80
2018-08-06T11:05:27.629Z,41.00
2018-08-06T11:07:57.517Z,39.10
2018-08-06T11:10:27.316Z,41.30
2018-08-06T11:12:57.140Z,40.40
2018-08-06T11:15:27.259Z,40.40
2018-08-06T11:17:57.116Z,41.40
2018-08-06T11:20:27.097Z,41.90
2018-08-06T11:22:57.015Z,42.30
2018-08-06T11:25:26.872Z,40.40
2018-08-06T11:27:56.649Z,40.90
2018-08-06T11:30:26.541Z,40.00
2018-08-06T11:32:56.451Z,40.00
2018-08-06T11:35:26.377Z,40.10
2018-08-06T11:37:56.322Z,39.80
2018-08-06T11:40:26.103Z,41.90
2018-08-06T11:42:56.034Z,41.60
2018-08-06T11:45:25.784Z,41.90
2018-08-06T11:47:55.612Z,40.80
2018-08-06T11:50:25.405Z,40.60
2018-08-06T11:52:55.155Z,41.90
2018-08-06T11:55:24.944Z,38.60
2018-08-06T11:57:54.700Z,39.60
2018-08-06T12:00:26.420Z,41.70
2018-08-06T12:02:56.266Z,40.80
2018-08-06T12:05:26.168Z,40.40
2018-08-06T12:07:55.992Z,39.50
2018-08-06T12:10:25.855Z,40.50
2018-08-06T12:12:55.545Z,41.30
2018-08-06T12:15:25.480Z,40.40
2018-08-06T12:17:55.133Z,40.50
2018-08-06T12:20:24.888Z,40.60
2018-08-06T12:22:54.540Z,40.30
2018-08-06T12:25:24.226Z,40.20
2018-08-06T12:27:53.964Z,41.90
2018-08-06T12:30:24.279Z,41.90
2018-08-06T12:32:54.590Z,41.70
2018-08-06T12:35:24.454Z,40.40
2018-08-06T12:37:54.290Z,42.20
2018-08-06T12:40:24.430Z,42.30
2018-08-06T12:42:54.236Z,42.30
2018-08-06T12:45:23.988Z,41.90
2018-08-06T12:47:53.951Z,42.70
2018-08-06T12:52:52.889Z,42.50
2018-08-06T12:55:22.796Z,41.60
2018-08-06T12:57:52.544Z,41.40
2018-08-06T13:00:25.160Z,41.40
2018-08-06T13:05:25.168Z,42.00
2018-08-06T13:07:54.863Z,42.20
2018-08-06T13:10:24.733Z,42.20
2018-08-06T13:12:54.480Z,41.40
2018-08-06T13:15:24.344Z,40.80
2018-08-06T13:20:23.197Z,42.60
2018-08-06T13:22:52.818Z,42.20
2018-08-06T13:25:22.579Z,42.70
2018-08-06T13:27:52.334Z,42.60
2018-08-06T13:30:22.198Z,41.80
2018-08-06T13:32:51.946Z,42.90
2018-08-06T13:35:21.826Z,43.40
2018-08-06T13:37:51.671Z,42.90
2018-08-06T13:40:27.696Z,42.50
2018-08-06T13:42:58.231Z,43.50
2018-08-06T13:45:28.097Z,43.70
2018-08-06T13:47:57.864Z,43.20
2018-08-06T13:50:27.628Z,44.50
2018-08-06T13:52:57.534Z,43.80
2018-08-06T13:55:27.252Z,42.30
2018-08-06T13:57:57.068Z,42.40
2018-08-06T14:00:26.904Z,43.70
2018-08-06T14:05:25.943Z,43.90
2018-08-06T14:07:55.837Z,43.40
2018-08-06T14:10:25.593Z,42.90
2018-08-06T14:12:55.360Z,43.80
2018-08-06T14:15:25.112Z,44.50
2018-08-06T14:17:54.914Z,44.10
2018-08-06T14:20:24.649Z,44.80
2018-08-06T14:22:54.508Z,46.50
2018-08-06T14:25:24.293Z,46.20
2018-08-06T14:27:54.082Z,44.80
2018-08-06T14:30:23.937Z,46.50
2018-08-06T14:35:22.977Z,45.20
2018-08-06T14:37:52.819Z,45.10
2018-08-06T14:40:22.632Z,45.80
2018-08-06T14:42:55.083Z,44.40
2018-08-06T14:45:24.810Z,44.40
2018-08-06T14:47:54.668Z,44.90
2018-08-06T14:55:22.582Z,45.90
2018-08-06T14:57:52.341Z,45.50
2018-08-06T15:00:23.265Z,46.80
2018-08-06T15:02:53.868Z,44.50
2018-08-06T15:05:23.500Z,46.70
2018-08-06T15:07:53.346Z,46.70
2018-08-06T15:10:23.290Z,47.60
2018-08-06T15:15:22.310Z,48.40
2018-08-06T15:17:52.213Z,48.50
2018-08-06T15:20:22.085Z,49.10
2018-08-06T15:22:52.143Z,49.20
2018-08-06T15:25:22.949Z,49.70
2018-08-06T15:27:52.949Z,49.70
2018-08-06T15:30:22.772Z,49.00
2018-08-06T15:32:52.560Z,47.10
2018-08-06T15:35:22.123Z,46.30
2018-08-06T15:37:52.027Z,47.40
2018-08-06T15:40:22.064Z,47.70
2018-08-06T15:45:20.956Z,47.00
2018-08-06T15:47:50.681Z,46.70
2018-08-06T15:50:21.764Z,46.00
2018-08-06T15:52:51.606Z,46.50
2018-08-06T15:55:22.274Z,47.20
2018-08-06T16:00:21.223Z,46.90
2018-08-06T16:02:51.004Z,47.10
2018-08-06T16:05:21.055Z,47.70
2018-08-06T16:07:50.872Z,47.30
2018-08-06T16:10:20.644Z,47.20
2018-08-06T16:12:50.404Z,46.10
2018-08-06T16:15:20.237Z,45.80
2018-08-06T16:17:50.009Z,45.20
2018-08-06T16:20:19.860Z,44.90
2018-08-06T16:22:49.592Z,44.70
2018-08-06T16:27:48.435Z,45.90
2018-08-06T16:30:19.965Z,45.40
2018-08-06T16:32:49.981Z,45.70
2018-08-06T16:35:21.079Z,44.90
2018-08-06T16:37:51.360Z,44.00
2018-08-06T16:40:21.145Z,43.70
2018-08-06T16:45:20.339Z,44.50
2018-08-06T16:47:50.227Z,45.00
2018-08-06T16:50:20.142Z,45.50
2018-08-06T16:52:50.186Z,45.20
2018-08-06T16:55:19.838Z,45.50
2018-08-06T16:57:49.743Z,46.10
2018-08-06T17:00:21.523Z,46.80
2018-08-06T17:02:52.017Z,45.10
2018-08-06T17:05:21.723Z,45.60
2018-08-06T17:10:21.784Z,46.00
2018-08-06T17:12:52.857Z,46.70
2018-08-06T17:15:22.706Z,47.40
2018-08-06T17:17:53.699Z,48.60
2018-08-06T17:20:23.787Z,48.50
2018-08-06T17:22:53.583Z,49.30
2018-08-06T17:27:52.280Z,47.90
2018-08-06T17:30:21.725Z,49.10
2018-08-06T17:32:51.454Z,50.70
2018-08-06T17:35:21.055Z,51.30
2018-08-06T17:37:50.521Z,51.60
2018-08-06T17:40:20.517Z,50.80
2018-08-06T17:42:51.210Z,51.80
2018-08-06T17:45:24.025Z,52.70
2018-08-06T17:47:54.852Z,52.50
2018-08-06T17:50:24.613Z,52.90
2018-08-06T17:52:54.394Z,52.40
2018-08-06T17:55:24.133Z,53.70
2018-08-06T17:57:53.547Z,53.70
2018-08-06T18:00:23.904Z,52.70
2018-08-06T18:02:53.330Z,54.20
2018-08-06T18:05:22.752Z,54.60
2018-08-06T18:07:52.162Z,54.80
2018-08-06T18:10:21.698Z,54.90
2018-08-06T18:12:51.155Z,55.50
2018-08-06T18:15:20.598Z,55.80
2018-08-06T18:17:50.018Z,55.90
2018-08-06T18:20:19.865Z,56.00
2018-08-06T18:22:49.312Z,56.30
2018-08-06T18:25:19.745Z,56.90
2018-08-06T18:27:50.097Z,56.60
2018-08-06T18:30:21.101Z,57.20
2018-08-06T18:32:50.978Z,57.30
2018-08-06T18:35:20.828Z,57.00
2018-08-06T18:37:50.266Z,57.10
2018-08-06T18:40:20.853Z,57.00
2018-08-06T18:42:51.441Z,57.80
2018-08-06T18:45:22.924Z,58.00
2018-08-06T18:47:54.103Z,57.20
2018-08-06T18:50:25.044Z,55.80
2018-08-06T18:52:54.828Z,56.20
2018-08-06T18:55:25.097Z,56.30
2018-08-06T19:00:25.642Z,57.50
2018-08-06T19:02:56.090Z,57.50
2018-08-06T19:05:26.528Z,57.00
2018-08-06T19:07:57.417Z,57.70
2018-08-06T19:10:27.996Z,57.10
2018-08-06T19:13:03.035Z,56.80
2018-08-06T19:15:32.493Z,57.00
2018-08-06T19:18:06.935Z,56.80
2018-08-06T19:20:36.362Z,56.90
2018-08-06T19:23:05.923Z,57.10
2018-08-06T19:25:35.546Z,57.20
2018-08-06T19:28:05.326Z,57.20
2018-08-06T19:30:40.043Z,57.20
2018-08-06T19:33:09.557Z,57.50
2018-08-06T19:35:39.341Z,57.50
2018-08-06T19:38:09.188Z,57.80
2018-08-06T19:40:39.383Z,58.10
2018-08-06T19:43:40.798Z,58.40
2018-08-06T19:46:10.451Z,58.40
2018-08-06T19:48:40.388Z,59.10
2018-08-06T19:51:09.863Z,58.80
2018-08-06T19:53:39.684Z,59.00
2018-08-06T19:56:15.819Z,59.30
2018-08-06T19:58:45.702Z,59.50
2018-08-06T20:01:15.652Z,59.80
2018-08-06T20:03:45.328Z,59.50
2018-08-06T20:06:14.995Z,59.50
2018-08-06T20:08:45.423Z,59.20
2018-08-06T20:11:15.432Z,59.40
2018-08-06T20:13:46.419Z,59.50
2018-08-06T20:16:17.041Z,59.80
2018-08-06T20:18:48.269Z,59.80
2018-08-06T20:21:17.983Z,59.60
2018-08-06T20:23:49.044Z,59.60
2018-08-06T20:26:19.036Z,59.90
2018-08-06T20:28:49.074Z,59.70
2018-08-06T20:31:19.940Z,60.20
2018-08-06T20:33:49.832Z,60.50
2018-08-06T20:36:20.733Z,60.50
2018-08-06T20:38:52.072Z,61.00
2018-08-06T20:41:22.557Z,61.50
2018-08-06T20:43:52.939Z,61.70
2018-08-06T20:46:22.651Z,61.50
2018-08-06T20:48:52.506Z,61.50
2018-08-06T20:51:22.388Z,60.90
2018-08-06T20:53:52.317Z,61.20
2018-08-06T20:56:22.028Z,61.60
2018-08-06T20:58:52.005Z,61.80
2018-08-06T21:01:21.958Z,62.30
2018-08-06T21:03:51.645Z,62.10
2018-08-06T21:06:21.605Z,62.20
2018-08-06T21:08:51.697Z,62.00
2018-08-06T21:11:21.453Z,62.40
2018-08-06T21:13:51.193Z,62.30
2018-08-06T21:16:21.019Z,62.40
2018-08-06T21:18:50.938Z,62.70
2018-08-06T21:21:21.044Z,62.50
2018-08-06T21:23:50.836Z,63.00
2018-08-06T21:26:20.701Z,63.00
2018-08-06T21:28:50.550Z,63.40
2018-08-06T21:31:20.309Z,63.20
2018-08-06T21:33:49.981Z,63.80
2018-08-06T21:36:19.780Z,63.80
2018-08-06T21:41:18.750Z,65.10
2018-08-06T21:43:48.605Z,65.00
2018-08-06T21:46:18.387Z,65.00
2018-08-06T21:48:48.228Z,65.00
2018-08-06T21:53:47.079Z,65.50
2018-08-06T21:56:16.896Z,65.30
2018-08-06T21:58:46.811Z,65.30
2018-08-06T22:01:16.433Z,65.30
2018-08-06T22:03:46.157Z,65.60
2018-08-06T22:06:15.935Z,65.30
2018-08-06T22:08:45.813Z,66.30
2018-08-06T22:13:44.744Z,65.90
2018-08-06T22:16:14.544Z,65.60
2018-08-06T22:18:44.307Z,66.00
2018-08-06T22:21:14.067Z,65.90
2018-08-06T22:23:43.707Z,65.60
2018-08-06T22:26:13.677Z,66.10
2018-08-06T22:28:43.355Z,66.30
2018-08-06T22:31:13.235Z,66.30
2018-08-06T22:33:42.952Z,66.40
2018-08-06T22:36:12.674Z,66.70
2018-08-06T22:38:42.579Z,68.00
2018-08-06T22:41:12.504Z,66.90
2018-08-06T22:43:42.309Z,66.90
2018-08-06T22:46:12.020Z,66.70
2018-08-06T22:48:42.012Z,67.60
2018-08-06T22:51:11.844Z,67.20
2018-08-06T22:53:41.561Z,67.30
2018-08-06T22:56:11.901Z,66.90
2018-08-06T22:58:41.696Z,67.30
2018-08-06T23:01:12.178Z,67.10
2018-08-06T23:06:10.934Z,67.60
2018-08-06T23:08:40.792Z,67.40
2018-08-06T23:11:10.744Z,68.10
2018-08-06T23:13:40.338Z,68.10
2018-08-06T23:16:10.269Z,67.70
2018-08-06T23:18:40.061Z,67.70
2018-08-06T23:21:09.796Z,67.70
2018-08-06T23:23:39.299Z,67.90
2018-08-06T23:26:09.068Z,68.10
2018-08-06T23:28:38.865Z,67.80
2018-08-06T23:31:08.709Z,68.10
2018-08-06T23:33:38.357Z,68.30
2018-08-06T23:36:08.804Z,68.80
2018-08-06T23:38:38.593Z,68.80
2018-08-06T23:41:08.440Z,68.90
2018-08-06T23:46:07.027Z,69.80
2018-08-06T23:48:36.808Z,68.90
2018-08-06T23:51:07.108Z,68.70
2018-08-06T23:53:36.785Z,68.50
2018-08-06T23:56:06.515Z,69.40
2018-08-06T23:58:36.300Z,69.40
